Seafrance Rodin — FOBQ — position and weather

sailwx.info

Track history (hours):
 
Tides and Currents Weather Stations Pressure Air Temp Water Temp Dewpoint Dewpoint Depression Visibility Wind Speed Wind Dir Waves Ship Positions

Seafrance Rodin

Operator: SeaFrance

Last reported at 2018-Nov-11 02:27 UTC. Time now 2018-Nov-13 06:34 UTC.
Position N 50°58' E 001°52'.

Length 185 m; draft 6 m.

Type: Ship (hazmat cat A). MMSI: 227022800.

Date/timePositionNaut miles runAvg speedWind from/ knotsBaromVisibWave heightAir tempDewpointWater temp
2018-Nov-11 02:27N 50°58' E 001°52'1 1.3
2018-Nov-11 02:02N 50°58' E 001°51'611.8
2018-Nov-11 01:33N 50°58' E 001°42'919.0
2018-Nov-11 01:03N 51°04' E 001°30'711.1
2018-Nov-11 00:25N 51°07' E 001°20'0 0.0
2018-Nov-11 00:02N 51°07' E 001°20'2 3.5
2018-Nov-10 23:32N 51°07' E 001°23'917.5
2018-Nov-10 23:03N 51°02' E 001°35'918.0
2018-Nov-10 22:32N 50°58' E 001°47'3 5.2
2018-Nov-10 22:02N 50°58' E 001°51'0 0.0
2018-Nov-10 21:32N 50°58' E 001°51'4 7.7
2018-Nov-10 21:03N 50°58' E 001°45'816.0
2018-Nov-10 20:32N 50°60' E 001°33'816.7
2018-Nov-10 20:03N 51°06' E 001°23'3 4.8
2018-Nov-10 19:29N 51°07' E 001°20'0 0.0
2018-Nov-10 18:58N 51°07' E 001°20'512.0
2018-Nov-10 18:33N 51°05' E 001°27'1019.6
2018-Nov-10 18:02N 50°60' E 001°41'713.9
2018-Nov-10 17:32N 50°58' E 001°51'0 0.0
2018-Nov-10 17:02N 50°58' E 001°51'2 4.0
2018-Nov-10 16:32N 50°58' E 001°48'816.6
2018-Nov-10 16:03N 50°60' E 001°35'917.3
2018-Nov-10 15:32N 51°05' E 001°25'3 6.5
2018-Nov-10 15:01N 51°07' E 001°20'0 0.0
2018-Nov-10 14:32N 51°07' E 001°20'4 7.9
2018-Nov-10 14:02N 51°06' E 001°26'1019.4
2018-Nov-10 13:32N 51°01' E 001°39'816.0
2018-Nov-10 13:02N 50°58' E 001°51'0 0.2
2018-Nov-10 12:32N 50°58' E 001°51'1 1.9
2018-Nov-10 12:02N 50°58' E 001°50'918.8
2018-Nov-10 11:32N 51°01' E 001°35'918.2
2018-Nov-10 11:02N 51°06' E 001°24'3 4.7
2018-Nov-10 10:29N 51°07' E 001°20'0 0.0
2018-Nov-10 10:00N 51°07' E 001°20'2 4.8
2018-Nov-10 09:32N 51°07' E 001°24'917.2
2018-Nov-10 09:03N 51°03' E 001°36'917.5
2018-Nov-10 08:32N 50°58' E 001°47'3 5.1
2018-Nov-10 08:03N 50°58' E 001°51'0 0.0
2018-Nov-10 07:32N 50°58' E 001°51'3 6.7
2018-Nov-10 07:03N 50°58' E 001°46'815.8
2018-Nov-10 06:32N 51°01' E 001°35'816.3
2018-Nov-10 06:02N 51°06' E 001°24'3 5.1
2018-Nov-10 05:28N 51°07' E 001°20'0 0.1
2018-Nov-10 05:02N 51°07' E 001°20'511.0
2018-Nov-10 04:32N 51°07' E 001°29'815.6
2018-Nov-10 04:03N 51°02' E 001°39'715.0
2018-Nov-10 03:32N 50°58' E 001°49'2 3.2
2018-Nov-10 03:02N 50°58' E 001°51'1 2.9
2018-Nov-10 02:32N 50°58' E 001°49'815.7
2018-Nov-10 02:03N 50°59' E 001°36'816.5
2018-Nov-10 01:33N 51°04' E 001°27'510.0
2018-Nov-10 01:01N 51°07' E 001°20'0 0.0
2018-Nov-10 00:30N 51°07' E 001°20'2 4.8
2018-Nov-10 00:02N 51°07' E 001°24'3 5.2
2018-Nov-09 23:32N 51°07' E 001°28'816.0
2018-Nov-09 23:02N 51°02' E 001°38'816.0
2018-Nov-09 22:33N 50°58' E 001°49'1 2.5
2018-Nov-09 22:02N 50°58' E 001°51'0 0.0
2018-Nov-09 21:32N 50°58' E 001°51'611.4
2018-Nov-09 21:02N 50°58' E 001°42'816.9
2018-Nov-09 20:32N 51°02' E 001°30'816.4
2018-Nov-09 20:02N 51°07' E 001°21'0 0.7
2018-Nov-09 19:32N 51°07' E 001°20'0 0.1
2018-Nov-09 18:55N 51°07' E 001°20'512.2
2018-Nov-09 18:32N 51°06' E 001°27'816.9
2018-Nov-09 18:02N 51°01' E 001°38'816.1
2018-Nov-09 17:33N 50°58' E 001°50'1 1.7
2018-Nov-09 17:02N 50°58' E 001°51'1 3.0
2018-Nov-09 16:32N 50°58' E 001°49'815.7
2018-Nov-09 16:03N 50°60' E 001°37'815.2
2018-Nov-09 15:33N 51°05' E 001°27'5 9.2
2018-Nov-09 14:57N 51°07' E 001°20'0 0.0
2018-Nov-09 14:27N 51°07' E 001°20'410.9
2018-Nov-09 14:02N 51°07' E 001°27'918.4
2018-Nov-09 13:32N 51°01' E 001°39'816.0
2018-Nov-09 13:03N 50°58' E 001°51'1 1.0
2018-Nov-09 12:32N 50°58' E 001°51'0 0.2
2018-Nov-09 12:03N 50°58' E 001°51'816.4
2018-Nov-09 11:32N 50°59' E 001°38'816.3
2018-Nov-09 11:02N 51°04' E 001°28'612.1
2018-Nov-09 10:32N 51°07' E 001°20'0 0.0
2018-Nov-09 10:01N 51°07' E 001°20'2 3.6
2018-Nov-09 09:33N 51°07' E 001°23'917.5
2018-Nov-09 09:03N 51°03' E 001°35'917.3
2018-Nov-09 08:33N 50°58' E 001°47'3 5.7
2018-Nov-09 08:02N 50°58' E 001°51'0 0.0
2018-Nov-09 07:33N 50°58' E 001°51'4 8.6
2018-Nov-09 07:02N 50°58' E 001°44'815.9
2018-Nov-09 06:32N 51°02' E 001°34'816.6
2018-Nov-09 06:02N 51°07' E 001°23'2 1.6
2018-Nov-09 04:55N 51°07' E 001°20'3 7.0
2018-Nov-09 04:32N 51°07' E 001°24'815.9
2018-Nov-09 04:02N 51°03' E 001°35'816.3
2018-Nov-09 03:32N 50°58' E 001°45'4 7.2
2018-Nov-09 03:02N 50°58' E 001°51'0 0.0
2018-Nov-09 02:32N 50°58' E 001°51'1 1.9
2018-Nov-09 02:02N 50°58' E 001°50'815.9
2018-Nov-09 01:32N 51°00' E 001°38'816.6
2018-Nov-09 01:02N 51°05' E 001°26'5 3.9
2018-Nov-08 23:48N 51°07' E 001°20'1 4.9
2018-Nov-08 23:32N 51°07' E 001°22'917.3
2018-Nov-08 23:03N 51°03' E 001°34'917.8
2018-Nov-08 22:32N 50°58' E 001°46'3 6.5
2018-Nov-08 22:02N 50°58' E 001°51'0 0.0
2018-Nov-08 21:33N 50°58' E 001°51'4 7.7
2018-Nov-08 21:02N 50°58' E 001°45'917.4
2018-Nov-08 20:33N 51°01' E 001°33'917.5
2018-Nov-08 20:03N 51°07' E 001°22'1 2.1
2018-Nov-08 19:29N 51°08' E 001°20'0 0.1
2018-Nov-08 19:02N 51°07' E 001°20'714.8
2018-Nov-08 18:32N 51°04' E 001°31'1019.9
2018-Nov-08 18:02N 50°58' E 001°44'5 9.4
2018-Nov-08 17:32N 50°58' E 001°51'0 0.0
2018-Nov-08 17:02N 50°58' E 001°51'3 6.0
2018-Nov-08 16:32N 50°58' E 001°46'815.4
2018-Nov-08 16:02N 51°00' E 001°35'918.2
2018-Nov-08 15:32N 51°06' E 001°23'2 4.2
2018-Nov-08 14:57N 51°08' E 001°20'0 0.0
2018-Nov-08 14:31N 51°08' E 001°20'3 5.7
2018-Nov-08 14:03N 51°07' E 001°24'1020.1
2018-Nov-08 13:32N 51°01' E 001°38'917.2
2018-Nov-08 13:02N 50°58' E 001°51'0 0.8
2018-Nov-08 12:32N 50°58' E 001°51'0 0.2
2018-Nov-08 12:02N 50°58' E 001°51'816.4
2018-Nov-08 11:32N 50°59' E 001°38'918.0
2018-Nov-08 11:03N 51°04' E 001°27'510.0
2018-Nov-08 10:31N 51°07' E 001°20'0 0.0
2018-Nov-08 10:02N 51°07' E 001°20'2 3.2
2018-Nov-08 09:32N 51°07' E 001°23'918.6
2018-Nov-08 09:02N 51°02' E 001°35'1019.3
2018-Nov-08 08:32N 50°58' E 001°49'1 2.5
2018-Nov-08 08:02N 50°58' E 001°51'0 0.0
2018-Nov-08 07:32N 50°58' E 001°51'3 6.4
2018-Nov-08 07:03N 50°58' E 001°46'815.2
2018-Nov-08 06:32N 51°00' E 001°35'917.1
2018-Nov-08 06:03N 51°06' E 001°24'3 6.1
2018-Nov-08 05:32N 51°07' E 001°20'0 0.0
2018-Nov-08 05:02N 51°07' E 001°20'3 5.1
2018-Nov-08 04:33N 51°07' E 001°24'815.5
2018-Nov-08 04:03N 51°04' E 001°35'816.1
2018-Nov-08 03:33N 50°58' E 001°45'4 8.1
2018-Nov-08 03:02N 50°58' E 001°51'0 0.0
2018-Nov-08 02:32N 50°58' E 001°51'1 2.8
2018-Nov-08 02:02N 50°58' E 001°49'714.1
2018-Nov-08 01:32N 50°59' E 001°38'816.2
2018-Nov-08 01:02N 51°04' E 001°27'517.0
2018-Nov-08 00:43N 51°07' E 001°21'0 1.7
2018-Nov-08 00:27N 51°07' E 001°20'0 0.0
2018-Nov-08 00:01N 51°07' E 001°20'2 4.3
2018-Nov-07 23:33N 51°07' E 001°23'917.8
2018-Nov-07 23:03N 51°03' E 001°36'817.0
2018-Nov-07 22:33N 50°58' E 001°47'3 5.4
2018-Nov-07 22:02N 50°58' E 001°51'0 0.0
2018-Nov-07 21:33N 50°58' E 001°51'3 7.0
2018-Nov-07 21:03N 50°58' E 001°46'816.7
2018-Nov-07 20:32N 51°01' E 001°33'917.7
2018-Nov-07 20:02N 51°06' E 001°23'2 3.1
2018-Nov-07 19:26N 51°07' E 001°20'0 0.2
2018-Nov-07 19:01N 51°07' E 001°20'715.1
2018-Nov-07 18:32N 51°04' E 001°31'1020.6
2018-Nov-07 18:02N 50°58' E 001°44'5 9.0
2018-Nov-07 17:32N 50°58' E 001°51'0 0.0
2018-Nov-07 17:02N 50°58' E 001°51'4 8.4
2018-Nov-07 16:33N 50°58' E 001°45'1019.0
2018-Nov-07 16:03N 51°03' E 001°32'913.1
2018-Nov-07 15:23N 51°07' E 001°20'0 0.0
2018-Nov-07 14:59N 51°07' E 001°20'0 0.0
2018-Nov-07 14:31N 51°07' E 001°20'510.5
2018-Nov-07 14:03N 51°06' E 001°28'1019.7
2018-Nov-07 13:32N 51°00' E 001°41'714.2
2018-Nov-07 13:02N 50°58' E 001°51'0 0.0
2018-Nov-07 12:33N 50°58' E 001°51'0 0.1
2018-Nov-07 12:02N 50°58' E 001°51'815.3
2018-Nov-07 11:32N 50°60' E 001°39'917.2
2018-Nov-07 11:03N 51°04' E 001°28'611.4
2018-Nov-07 10:32N 51°07' E 001°20'0 0.0
2018-Nov-07 09:57N 51°07' E 001°20'2 4.0
2018-Nov-07 09:33N 51°07' E 001°23'917.7
2018-Nov-07 09:03N 51°03' E 001°35'918.3
2018-Nov-07 08:32N 50°58' E 001°48'2 4.5
2018-Nov-07 08:02N 50°58' E 001°51'0 0.0
2018-Nov-07 07:32N 50°58' E 001°51'3 6.4
2018-Nov-07 07:02N 50°58' E 001°46'815.9
2018-Nov-07 06:32N 51°01' E 001°34'816.6
2018-Nov-07 06:02N 51°06' E 001°24'3 5.3
2018-Nov-07 05:30N 51°07' E 001°20'0 0.0
2018-Nov-07 05:02N 51°07' E 001°20'3 5.4
2018-Nov-07 04:33N 51°07' E 001°24'1 0.2
2018-Nov-06 23:30N 51°07' E 001°23'817.2
2018-Nov-06 23:03N 51°04' E 001°34'117.4
2018-Nov-06 23:00N 51°03' E 001°35'1111.5
2018-Nov-06 22:01N 50°58' E 001°51'0 0.0
2018-Nov-06 21:30N 50°58' E 001°51'4 8.7
2018-Nov-06 21:04N 50°58' E 001°45'119.3
2018-Nov-06 21:01N 50°58' E 001°44'917.0
2018-Nov-06 20:30N 51°02' E 001°31'716.4
2018-Nov-06 20:03N 51°06' E 001°22'118.0
2018-Nov-06 20:01N 51°07' E 001°21'1 1.0
2018-Nov-06 19:04N 51°08' E 001°20'0 0.0
2018-Nov-06 19:02N 51°08' E 001°20'0 0.2
2018-Nov-06 19:00N 51°08' E 001°20'612.1
2018-Nov-06 18:30N 51°05' E 001°29'919.8
2018-Nov-06 18:03N 50°60' E 001°41'120.2
2018-Nov-06 18:01N 50°59' E 001°42'612.0
2018-Nov-06 17:30N 50°58' E 001°51'0 0.0
2018-Nov-06 17:03N 50°58' E 001°51'0 0.0
2018-Nov-06 17:00N 50°58' E 001°51'2 3.7
2018-Nov-06 16:30N 50°58' E 001°48'715.9
2018-Nov-06 16:03N 50°60' E 001°37'116.7
2018-Nov-06 16:00N 51°00' E 001°36'917.2
2018-Nov-06 15:30N 51°05' E 001°25'4 7.7
2018-Nov-06 15:00N 51°08' E 001°20'0 0.0
2018-Nov-06 14:27N 51°08' E 001°20'2 5.6
2018-Nov-06 14:04N 51°07' E 001°24'119.4
2018-Nov-06 14:01N 51°07' E 001°25'1020.5
2018-Nov-06 13:31N 51°01' E 001°39'817.8
2018-Nov-06 13:03N 50°58' E 001°51'0 5.0
2018-Nov-06 13:00N 50°58' E 001°51'0 0.2
2018-Nov-06 12:31N 50°58' E 001°51'0 0.0
2018-Nov-06 12:04N 50°58' E 001°51'0 2.1
2018-Nov-06 12:00N 50°58' E 001°51'816.5
2018-Nov-06 11:31N 50°59' E 001°38'816.9
2018-Nov-06 11:04N 51°04' E 001°28'116.9
2018-Nov-06 11:01N 51°04' E 001°27'610.8
2018-Nov-06 10:30N 51°08' E 001°20'0 0.0
2018-Nov-06 10:00N 51°08' E 001°20'2 4.2
2018-Nov-06 09:30N 51°07' E 001°24'716.6
2018-Nov-06 09:04N 51°03' E 001°34'117.5
2018-Nov-06 09:00N 51°02' E 001°35'917.8
2018-Nov-06 08:30N 50°58' E 001°47'3 5.7
2018-Nov-06 08:03N 50°58' E 001°51'0 0.0
2018-Nov-06 08:01N 50°58' E 001°51'0 0.0
2018-Nov-06 07:30N 50°58' E 001°51'2 4.2
2018-Nov-06 07:04N 50°58' E 001°48'114.0
2018-Nov-06 07:00N 50°58' E 001°47'815.9
2018-Nov-06 06:31N 50°60' E 001°35'817.3
2018-Nov-06 06:03N 51°05' E 001°25'116.7
2018-Nov-06 06:00N 51°05' E 001°24'3 4.4
2018-Nov-06 05:15N 51°08' E 001°20'0 0.0
2018-Nov-06 05:03N 51°08' E 001°20'0 0.0
2018-Nov-06 04:55N 51°08' E 001°20'4 9.7
2018-Nov-06 04:30N 51°06' E 001°26'715.1
2018-Nov-06 04:04N 51°03' E 001°36'115.0
2018-Nov-06 04:01N 51°02' E 001°36'714.9
2018-Nov-06 03:30N 50°58' E 001°46'3 6.7
2018-Nov-06 03:03N 50°58' E 001°51'0 0.0
2018-Nov-06 03:00N 50°58' E 001°51'0 0.0
2018-Nov-06 02:30N 50°58' E 001°51'2 3.6
2018-Nov-06 02:04N 50°58' E 001°49'115.3
2018-Nov-06 02:00N 50°58' E 001°47'714.8
2018-Nov-06 01:31N 50°60' E 001°36'1312.5
2018-Nov-06 00:30N 51°08' E 001°20'2 2.1
2018-Nov-05 23:31N 51°07' E 001°24'816.7
2018-Nov-05 23:03N 51°04' E 001°35'117.5
2018-Nov-05 23:01N 51°03' E 001°36'917.8
2018-Nov-05 22:31N 50°58' E 001°47'3 5.9
2018-Nov-05 22:03N 50°58' E 001°51'0 0.0
2018-Nov-05 22:00N 50°58' E 001°51'0 0.0
2018-Nov-05 21:30N 50°58' E 001°51'511.3
2018-Nov-05 21:03N 50°58' E 001°43'119.1
2018-Nov-05 21:00N 50°58' E 001°42'917.0
2018-Nov-05 20:30N 51°03' E 001°31'716.6
2018-Nov-05 20:03N 51°07' E 001°21'0 6.2
2018-Nov-05 20:00N 51°07' E 001°20'0 0.1
2018-Nov-05 19:30N 51°08' E 001°20'0 0.0
2018-Nov-05 19:03N 51°08' E 001°20'0 0.0
2018-Nov-05 19:00N 51°08' E 001°20'612.0
2018-Nov-05 18:30N 51°05' E 001°29'920.9
2018-Nov-05 18:03N 50°60' E 001°41'121.3
2018-Nov-05 18:01N 50°59' E 001°43'611.0
2018-Nov-05 17:30N 50°58' E 001°51'0 0.0
2018-Nov-05 17:03N 50°58' E 001°51'0 0.0
2018-Nov-05 17:00N 50°58' E 001°51'3 5.4
2018-Nov-05 16:30N 50°58' E 001°47'716.1
2018-Nov-05 16:03N 50°59' E 001°36'116.4
2018-Nov-05 16:00N 50°59' E 001°34'816.8
2018-Nov-05 15:30N 51°05' E 001°25'4 4.7
2018-Nov-05 14:45N 51°08' E 001°20'0 0.0
2018-Nov-05 14:29N 51°08' E 001°20'3 7.0
2018-Nov-05 14:03N 51°07' E 001°25'120.4
2018-Nov-05 14:01N 51°06' E 001°27'1818.4
2018-Nov-05 13:03N 50°58' E 001°51'0 2.6
2018-Nov-05 13:00N 50°58' E 001°51'0 0.0
2018-Nov-05 12:30N 50°58' E 001°51'0 1.1
2018-Nov-05 12:03N 50°58' E 001°51'112.1
2018-Nov-05 12:01N 50°58' E 001°50'917.2
2018-Nov-05 11:31N 51°00' E 001°36'817.8
2018-Nov-05 11:04N 51°05' E 001°26'118.0
2018-Nov-05 11:00N 51°05' E 001°25'3 6.8
2018-Nov-05 10:30N 51°08' E 001°20'0 0.0
2018-Nov-05 10:03N 51°08' E 001°20'0 0.0
2018-Nov-05 09:56N 51°08' E 001°20'0 0.3
2018-Nov-05 09:31N 51°07' E 001°20'716.1
2018-Nov-05 09:03N 51°05' E 001°31'121.3
2018-Nov-05 09:00N 51°04' E 001°32'1020.3
2018-Nov-05 08:31N 50°58' E 001°46'4 7.8
2018-Nov-05 08:03N 50°58' E 001°51'0 0.0
2018-Nov-05 08:00N 50°58' E 001°51'0 0.0
2018-Nov-05 07:30N 50°58' E 001°51'2 3.5
2018-Nov-05 07:03N 50°58' E 001°49'117.7
2018-Nov-05 07:00N 50°58' E 001°47'917.4
2018-Nov-05 06:30N 51°00' E 001°34'817.4
2018-Nov-05 06:03N 51°05' E 001°24'116.8
2018-Nov-05 06:00N 51°06' E 001°23'3 5.0
2018-Nov-05 05:31N 51°08' E 001°20'0 0.0
2018-Nov-05 04:59N 51°08' E 001°20'4 8.7
2018-Nov-05 04:30N 51°06' E 001°27'715.6
2018-Nov-05 04:03N 51°02' E 001°35'115.8
2018-Nov-05 04:00N 51°01' E 001°37'815.2
2018-Nov-05 03:30N 50°58' E 001°47'2 4.9
2018-Nov-05 03:03N 50°58' E 001°51'0 0.0
2018-Nov-05 03:00N 50°58' E 001°51'0 0.0
2018-Nov-05 02:30N 50°58' E 001°51'2 3.7
2018-Nov-05 02:04N 50°58' E 001°48'114.6
2018-Nov-05 02:00N 50°58' E 001°47'714.3
2018-Nov-05 01:30N 51°00' E 001°36'715.3
2018-Nov-05 01:03N 51°05' E 001°28'115.7
2018-Nov-05 01:01N 51°05' E 001°27'5 9.7
2018-Nov-05 00:30N 51°08' E 001°20'0 0.0
2018-Nov-05 00:03N 51°08' E 001°20'0 0.0
2018-Nov-05 00:00N 51°08' E 001°20'2 3.5
2018-Nov-04 23:30N 51°07' E 001°23'716.6
2018-Nov-04 23:03N 51°04' E 001°34'117.1
2018-Nov-04 23:01N 51°03' E 001°35'917.5
2018-Nov-04 22:31N 50°58' E 001°46'3 7.3
2018-Nov-04 22:03N 50°58' E 001°51'0 0.0
2018-Nov-04 22:01N 50°58' E 001°51'0 0.0
2018-Nov-04 21:30N 50°58' E 001°51'2 4.6
2018-Nov-04 21:03N 50°58' E 001°48'118.9
2018-Nov-04 21:00N 50°58' E 001°46'918.1
2018-Nov-04 20:30N 51°01' E 001°33'817.0
2018-Nov-04 20:03N 51°06' E 001°23'117.3
2018-Nov-04 20:00N 51°06' E 001°23'2 3.8
2018-Nov-04 19:30N 51°08' E 001°20'0 0.2
2018-Nov-04 19:03N 51°07' E 001°20'0 0.6
2018-Nov-04 19:00N 51°07' E 001°20'714.7
2018-Nov-04 18:30N 51°05' E 001°31'716.6
2018-Nov-04 18:03N 51°00' E 001°41'120.1
2018-Nov-04 18:00N 50°60' E 001°42'612.4
2018-Nov-04 17:31N 50°58' E 001°51'0 0.0
2018-Nov-04 17:00N 50°58' E 001°51'2 4.6
2018-Nov-04 16:30N 50°58' E 001°48'715.4
2018-Nov-04 16:03N 50°59' E 001°37'116.8
2018-Nov-04 16:00N 50°59' E 001°36'816.8
2018-Nov-04 15:30N 51°05' E 001°26'4 3.6
2018-Nov-04 14:22N 51°08' E 001°20'2 7.2
2018-Nov-04 14:03N 51°07' E 001°24'120.0
2018-Nov-04 14:00N 51°07' E 001°25'1020.2
2018-Nov-04 13:30N 51°01' E 001°39'817.7
2018-Nov-04 13:03N 50°58' E 001°51'0 4.9
2018-Nov-04 13:00N 50°58' E 001°51'0 0.2
2018-Nov-04 12:28N 50°58' E 001°51'0 0.4
2018-Nov-04 12:03N 50°58' E 001°51'0 3.0
2018-Nov-04 11:59N 50°58' E 001°52'0 0.1
2018-Nov-04 11:26N 50°58' E 001°52'0 0.0
2018-Nov-04 11:02N 50°58' E 001°52'0 0.0
2018-Nov-04 10:53N 50°58' E 001°52'0 0.0
2018-Nov-04 10:26N 50°58' E 001°52'0 0.0
2018-Nov-04 09:56N 50°58' E 001°52'0 0.0
2018-Nov-04 09:26N 50°58' E 001°52'0 0.0
2018-Nov-04 08:59N 50°58' E 001°52'0 0.0
2018-Nov-04 08:17N 50°58' E 001°52'0 0.0
2018-Nov-04 08:02N 50°58' E 001°52'0 0.0
2018-Nov-04 07:59N 50°58' E 001°52'0 0.0
2018-Nov-04 07:17N 50°58' E 001°52'0 0.0
2018-Nov-04 06:59N 50°58' E 001°52'0 0.0
2018-Nov-04 06:29N 50°58' E 001°52'0 0.0
2018-Nov-04 06:02N 50°58' E 001°52'0 0.0
2018-Nov-04 05:59N 50°58' E 001°52'0 0.0
2018-Nov-04 05:29N 50°58' E 001°52'0 0.0
2018-Nov-04 05:02N 50°58' E 001°52'0 0.0
2018-Nov-04 04:59N 50°58' E 001°52'0 0.0
2018-Nov-04 04:29N 50°58' E 001°52'0 0.0
2018-Nov-04 03:53N 50°58' E 001°52'0 0.0
2018-Nov-04 03:29N 50°58' E 001°52'0 0.0
2018-Nov-04 03:03N 50°58' E 001°52'0 0.0
2018-Nov-04 03:00N 50°58' E 001°52'0 0.8
2018-Nov-04 02:30N 50°58' E 001°51'1 1.2
2018-Nov-04 02:04N 50°58' E 001°50'111.5
2018-Nov-04 02:00N 50°58' E 001°50'715.0
2018-Nov-04 01:30N 51°00' E 001°38'919.7
2018-Nov-04 01:03N 51°05' E 001°26'119.8
2018-Nov-04 01:00N 51°06' E 001°25'4 7.1
2018-Nov-04 00:30N 51°07' E 001°20'0 0.0
2018-Nov-03 23:47N 51°07' E 001°20'1 4.1
2018-Nov-03 23:30N 51°07' E 001°22'817.2
2018-Nov-03 23:03N 51°03' E 001°33'118.6
2018-Nov-03 23:01N 51°03' E 001°34'918.3
2018-Nov-03 22:31N 50°58' E 001°46'10 4.8
2018-Nov-03 20:31N 51°02' E 001°32'716.3
2018-Nov-03 20:03N 51°06' E 001°23'116.5
2018-Nov-03 20:00N 51°07' E 001°22'1 2.6
2018-Nov-03 19:30N 51°07' E 001°20'0 0.3
2018-Nov-03 19:03N 51°07' E 001°20'0 1.2
2018-Nov-03 19:00N 51°07' E 001°20'815.0
2018-Nov-03 18:30N 51°04' E 001°31'716.7
2018-Nov-03 18:03N 50°59' E 001°40'116.2
2018-Nov-03 18:00N 50°59' E 001°42'612.3
2018-Nov-03 17:31N 50°58' E 001°51'0 0.0
2018-Nov-03 17:03N 50°58' E 001°51'0 0.0
2018-Nov-03 17:00N 50°58' E 001°51'2 3.8
2018-Nov-03 16:30N 50°58' E 001°48'716.1
2018-Nov-03 16:04N 50°59' E 001°37'116.3
2018-Nov-03 16:01N 50°60' E 001°36'816.4
2018-Nov-03 15:30N 51°05' E 001°25'4 9.4
2018-Nov-03 15:02N 51°07' E 001°20'0 0.0
2018-Nov-03 14:59N 51°07' E 001°20'0 0.2
2018-Nov-03 14:20N 51°07' E 001°20'310.2
2018-Nov-03 14:04N 51°07' E 001°25'119.6
2018-Nov-03 14:00N 51°06' E 001°26'1020.0
2018-Nov-03 13:31N 51°01' E 001°39'817.8
2018-Nov-03 13:04N 50°58' E 001°51'0 3.0
2018-Nov-03 13:01N 50°58' E 001°51'0 0.1
2018-Nov-03 12:30N 50°58' E 001°51'0 0.5
2018-Nov-03 12:03N 50°58' E 001°51'0 7.0
2018-Nov-03 12:01N 50°58' E 001°50'815.4
2018-Nov-03 11:30N 50°59' E 001°38'716.5
2018-Nov-03 11:04N 51°03' E 001°29'116.9
2018-Nov-03 11:01N 51°04' E 001°28'610.7
2018-Nov-03 10:27N 51°07' E 001°20'0 0.0
2018-Nov-03 10:00N 51°07' E 001°20'3 5.9
2018-Nov-03 09:30N 51°07' E 001°25'818.7
2018-Nov-03 09:03N 51°03' E 001°36'119.7
2018-Nov-03 09:00N 51°02' E 001°37'917.1
2018-Nov-03 08:30N 50°58' E 001°50'1 2.4
2018-Nov-03 08:03N 50°58' E 001°51'0 0.0
2018-Nov-03 08:00N 50°58' E 001°51'0 0.0
2018-Nov-03 07:30N 50°58' E 001°51'3 6.9
2018-Nov-03 07:03N 50°58' E 001°46'119.8
2018-Nov-03 07:00N 50°58' E 001°45'918.1
2018-Nov-03 06:31N 50°60' E 001°31'715.8
2018-Nov-03 06:04N 51°06' E 001°25'116.3
2018-Nov-03 06:00N 51°06' E 001°23'3 4.8
2018-Nov-03 05:29N 51°07' E 001°20'0 0.0
2018-Nov-03 05:03N 51°07' E 001°20'0 0.0
2018-Nov-03 05:00N 51°07' E 001°20'4 7.7
2018-Nov-03 04:31N 51°07' E 001°26'715.3
2018-Nov-03 04:04N 51°03' E 001°35'115.1
2018-Nov-03 04:01N 51°02' E 001°36'815.2
2018-Nov-03 03:31N 50°58' E 001°46'3 7.4
2018-Nov-03 03:03N 50°58' E 001°51'0 0.0
2018-Nov-03 03:00N 50°58' E 001°51'0 0.0
2018-Nov-03 02:30N 50°58' E 001°51'1 3.2
2018-Nov-03 02:04N 50°58' E 001°49'117.3
2018-Nov-03 02:00N 50°58' E 001°48'714.2
2018-Nov-03 01:30N 50°59' E 001°36'716.0
2018-Nov-03 01:04N 51°03' E 001°27'117.3
2018-Nov-03 01:01N 51°04' E 001°26'5 9.9
2018-Nov-03 00:29N 51°07' E 001°20'0 0.0
2018-Nov-02 23:54N 51°07' E 001°20'2 5.9
2018-Nov-02 23:30N 51°07' E 001°24'816.7
2018-Nov-02 23:03N 51°04' E 001°34'117.0
2018-Nov-02 23:00N 51°03' E 001°35'816.9
2018-Nov-02 22:31N 50°58' E 001°46'3 6.9
2018-Nov-02 22:04N 50°58' E 001°51'0 0.0
2018-Nov-02 22:00N 50°58' E 001°51'0 0.0
2018-Nov-02 21:30N 50°58' E 001°51'2 3.7
2018-Nov-02 21:04N 50°58' E 001°49'118.1
2018-Nov-02 21:01N 50°58' E 001°47'918.3
2018-Nov-02 20:31N 50°60' E 001°33'919.6
2018-Nov-02 20:03N 51°06' E 001°23'120.4
2018-Nov-02 20:00N 51°07' E 001°22'1 2.1
2018-Nov-02 19:24N 51°07' E 001°20'0 0.0
2018-Nov-02 18:57N 51°07' E 001°20'612.4
2018-Nov-02 18:31N 51°05' E 001°28'919.6
2018-Nov-02 18:04N 51°00' E 001°40'119.8
2018-Nov-02 18:00N 50°60' E 001°41'612.9
2018-Nov-02 17:30N 50°58' E 001°51'0 0.1
2018-Nov-02 17:03N 50°58' E 001°51'0 0.0
2018-Nov-02 17:00N 50°58' E 001°51'1 2.7
2018-Nov-02 16:31N 50°58' E 001°49'817.1
2018-Nov-02 16:03N 50°59' E 001°37'117.2
2018-Nov-02 16:00N 50°59' E 001°35'917.8
2018-Nov-02 15:30N 51°05' E 001°25'4 6.4
2018-Nov-02 14:54N 51°07' E 001°20'0 0.0
2018-Nov-02 14:26N 51°07' E 001°20'4 8.6
2018-Nov-02 14:01N 51°06' E 001°26'918.5
2018-Nov-02 13:31N 51°01' E 001°38'817.2
2018-Nov-02 13:03N 50°58' E 001°49'114.1
2018-Nov-02 13:01N 50°58' E 001°50'1 1.1
2018-Nov-02 12:30N 50°58' E 001°51'0 0.8
2018-Nov-02 12:04N 50°58' E 001°51'112.1
2018-Nov-02 12:01N 50°58' E 001°50'815.6
2018-Nov-02 11:30N 50°59' E 001°37'817.5
2018-Nov-02 11:04N 51°04' E 001°28'117.6
2018-Nov-02 11:01N 51°04' E 001°27'5 7.8
2018-Nov-02 10:22N 51°07' E 001°20'0 0.0
2018-Nov-02 09:57N 51°07' E 001°20'3 5.8
2018-Nov-02 09:30N 51°07' E 001°24'919.3
2018-Nov-02 09:03N 51°02' E 001°36'119.7
2018-Nov-02 09:01N 51°02' E 001°37'917.9
2018-Nov-02 08:30N 50°58' E 001°50'1 1.4
2018-Nov-02 08:03N 50°58' E 001°51'0 0.0
2018-Nov-02 08:00N 50°58' E 001°51'0 0.0
2018-Nov-02 07:30N 50°58' E 001°51'1 3.0
2018-Nov-02 07:03N 50°58' E 001°49'116.7
2018-Nov-02 07:01N 50°58' E 001°48'816.9
2018-Nov-02 06:30N 51°01' E 001°35'816.8
2018-Nov-02 06:03N 51°05' E 001°25'116.3
2018-Nov-02 06:00N 51°06' E 001°24'3 5.6
2018-Nov-02 05:27N 51°07' E 001°20'0 0.0
2018-Nov-02 05:03N 51°07' E 001°20'0 0.0
2018-Nov-02 04:58N 51°07' E 001°20'4 9.0
2018-Nov-02 04:31N 51°06' E 001°26'816.7
2018-Nov-02 04:04N 51°02' E 001°36'116.9
2018-Nov-02 04:01N 51°01' E 001°37'816.0
2018-Nov-02 03:31N 50°58' E 001°49'1 3.2
2018-Nov-02 03:04N 50°58' E 001°51'0 0.0
2018-Nov-02 03:01N 50°58' E 001°51'0 0.0
2018-Nov-02 02:31N 50°58' E 001°51'2 4.7
2018-Nov-02 02:04N 50°58' E 001°48'115.0
2018-Nov-02 02:00N 50°58' E 001°47'714.0
2018-Nov-02 01:30N 50°60' E 001°36'715.1
2018-Nov-02 01:03N 51°04' E 001°27'115.5
2018-Nov-02 01:00N 51°04' E 001°26'115.2
2018-Nov-02 00:56N 51°05' E 001°25'4 8.6
2018-Nov-02 00:29N 51°07' E 001°20'0 0.0
2018-Nov-01 23:58N 51°07' E 001°20'2 5.4
2018-Nov-01 23:30N 51°07' E 001°24'816.9
2018-Nov-01 23:03N 51°03' E 001°34'117.1
2018-Nov-01 23:00N 51°03' E 001°35'816.7
2018-Nov-01 22:30N 50°58' E 001°47'3 6.6
2018-Nov-01 22:03N 50°58' E 001°51'0 0.0
2018-Nov-01 22:01N 50°58' E 001°51'0 0.0
2018-Nov-01 21:31N 50°58' E 001°51'3 7.6
2018-Nov-01 21:03N 50°58' E 001°46'116.1
2018-Nov-01 21:01N 50°58' E 001°45'815.4
2018-Nov-01 20:31N 51°01' E 001°33'716.6
2018-Nov-01 20:03N 51°06' E 001°24'117.7
2018-Nov-01 20:01N 51°06' E 001°23'2 3.7
2018-Nov-01 19:25N 51°07' E 001°20'0 0.0
2018-Nov-01 18:59N 51°07' E 001°20'612.1
2018-Nov-01 18:31N 51°06' E 001°29'919.3
2018-Nov-01 18:03N 51°02' E 001°42'119.6
2018-Nov-01 18:00N 51°01' E 001°42'612.8
2018-Nov-01 17:31N 50°58' E 001°51'0 0.1
2018-Nov-01 17:03N 50°58' E 001°51'0 0.0
2018-Nov-01 17:00N 50°58' E 001°51'4 7.7
2018-Nov-01 16:30N 50°58' E 001°45'818.2
2018-Nov-01 16:03N 51°01' E 001°33'118.3
2018-Nov-01 16:00N 51°02' E 001°32'917.9
2018-Nov-01 15:30N 51°07' E 001°21'1 1.1
2018-Nov-01 15:03N 51°07' E 001°20'0 0.0
2018-Nov-01 14:58N 51°07' E 001°20'0 0.5
2018-Nov-01 14:30N 51°07' E 001°20'511.1
2018-Nov-01 14:00N 51°06' E 001°29'918.2
2018-Nov-01 13:31N 51°01' E 001°40'716.0
2018-Nov-01 13:03N 50°58' E 001°51'0 2.2
2018-Nov-01 13:00N 50°58' E 001°51'0 0.0
2018-Nov-01 12:30N 50°58' E 001°51'0 0.9
2018-Nov-01 12:03N 50°58' E 001°51'111.7
2018-Nov-01 12:00N 50°59' E 001°50'612.5
2018-Nov-01 11:30N 50°59' E 001°40'919.3
2018-Nov-01 11:03N 51°04' E 001°29'120.2
2018-Nov-01 11:00N 51°04' E 001°27'5 8.2
2018-Nov-01 10:20N 51°07' E 001°20'0 0.1
2018-Nov-01 09:53N 51°07' E 001°20'3 8.8
2018-Nov-01 09:31N 51°07' E 001°25'818.2
2018-Nov-01 09:04N 51°02' E 001°36'118.5
2018-Nov-01 09:00N 51°02' E 001°38'816.8
2018-Nov-01 08:30N 50°58' E 001°50'1 2.3
2018-Nov-01 08:04N 50°58' E 001°51'0 0.0
2018-Nov-01 08:00N 50°58' E 001°51'0 0.0
2018-Nov-01 07:31N 50°58' E 001°51'2 3.9
2018-Nov-01 07:03N 50°58' E 001°48'111.9
2018-Nov-01 07:00N 50°58' E 001°48'816.1
2018-Nov-01 06:30N 50°60' E 001°35'817.0
2018-Nov-01 06:03N 51°05' E 001°26'117.3
2018-Nov-01 06:00N 51°05' E 001°25'4 6.7
2018-Nov-01 05:28N 51°07' E 001°20'0 0.0
2018-Nov-01 05:00N 51°07' E 001°20'3 6.9
2018-Nov-01 04:31N 51°07' E 001°26'715.2
2018-Nov-01 04:03N 51°03' E 001°35'115.1
2018-Nov-01 04:00N 51°03' E 001°36'815.5
2018-Nov-01 03:31N 50°58' E 001°46'3 7.5
2018-Nov-01 03:03N 50°58' E 001°51'0 0.0
2018-Nov-01 03:00N 50°58' E 001°51'0 0.0
2018-Nov-01 02:30N 50°58' E 001°51'  
Track history (hours):
 
Tides and Currents Weather Stations Pressure Air Temp Water Temp Dewpoint Dewpoint Depression Visibility Wind Speed Wind Dir Waves Ship Positions

Seafrance Rodin

Operator: SeaFrance

Last reported at 2018-Nov-11 02:27 UTC. Time now 2018-Nov-13 06:34 UTC.
Position N 50°58' E 001°52'.

Length 185 m; draft 6 m.

Type: Ship (hazmat cat A). MMSI: 227022800.

Date/timePositionNaut miles runAvg speedWind from/ knotsBaromVisibWave heightAir tempDewpointWater temp
2018-Nov-11 02:27N 50°58' E 001°52'1 1.3
2018-Nov-11 02:02N 50°58' E 001°51'611.8
2018-Nov-11 01:33N 50°58' E 001°42'919.0
2018-Nov-11 01:03N 51°04' E 001°30'711.1
2018-Nov-11 00:25N 51°07' E 001°20'0 0.0
2018-Nov-11 00:02N 51°07' E 001°20'2 3.5
2018-Nov-10 23:32N 51°07' E 001°23'917.5
2018-Nov-10 23:03N 51°02' E 001°35'918.0
2018-Nov-10 22:32N 50°58' E 001°47'3 5.2
2018-Nov-10 22:02N 50°58' E 001°51'0 0.0
2018-Nov-10 21:32N 50°58' E 001°51'4 7.7
2018-Nov-10 21:03N 50°58' E 001°45'816.0
2018-Nov-10 20:32N 50°60' E 001°33'816.7
2018-Nov-10 20:03N 51°06' E 001°23'3 4.8
2018-Nov-10 19:29N 51°07' E 001°20'0 0.0
2018-Nov-10 18:58N 51°07' E 001°20'512.0
2018-Nov-10 18:33N 51°05' E 001°27'1019.6
2018-Nov-10 18:02N 50°60' E 001°41'713.9
2018-Nov-10 17:32N 50°58' E 001°51'0 0.0
2018-Nov-10 17:02N 50°58' E 001°51'2 4.0
2018-Nov-10 16:32N 50°58' E 001°48'816.6
2018-Nov-10 16:03N 50°60' E 001°35'917.3
2018-Nov-10 15:32N 51°05' E 001°25'3 6.5
2018-Nov-10 15:01N 51°07' E 001°20'0 0.0
2018-Nov-10 14:32N 51°07' E 001°20'4 7.9
2018-Nov-10 14:02N 51°06' E 001°26'1019.4
2018-Nov-10 13:32N 51°01' E 001°39'816.0
2018-Nov-10 13:02N 50°58' E 001°51'0 0.2
2018-Nov-10 12:32N 50°58' E 001°51'1 1.9
2018-Nov-10 12:02N 50°58' E 001°50'918.8
2018-Nov-10 11:32N 51°01' E 001°35'918.2
2018-Nov-10 11:02N 51°06' E 001°24'3 4.7
2018-Nov-10 10:29N 51°07' E 001°20'0 0.0
2018-Nov-10 10:00N 51°07' E 001°20'2 4.8
2018-Nov-10 09:32N 51°07' E 001°24'917.2
2018-Nov-10 09:03N 51°03' E 001°36'917.5
2018-Nov-10 08:32N 50°58' E 001°47'3 5.1
2018-Nov-10 08:03N 50°58' E 001°51'0 0.0
2018-Nov-10 07:32N 50°58' E 001°51'3 6.7
2018-Nov-10 07:03N 50°58' E 001°46'815.8
2018-Nov-10 06:32N 51°01' E 001°35'816.3
2018-Nov-10 06:02N 51°06' E 001°24'3 5.1
2018-Nov-10 05:28N 51°07' E 001°20'0 0.1
2018-Nov-10 05:02N 51°07' E 001°20'511.0
2018-Nov-10 04:32N 51°07' E 001°29'815.6
2018-Nov-10 04:03N 51°02' E 001°39'715.0
2018-Nov-10 03:32N 50°58' E 001°49'2 3.2
2018-Nov-10 03:02N 50°58' E 001°51'1 2.9
2018-Nov-10 02:32N 50°58' E 001°49'815.7
2018-Nov-10 02:03N 50°59' E 001°36'816.5
2018-Nov-10 01:33N 51°04' E 001°27'510.0
2018-Nov-10 01:01N 51°07' E 001°20'0 0.0
2018-Nov-10 00:30N 51°07' E 001°20'2 4.8
2018-Nov-10 00:02N 51°07' E 001°24'3 5.2
2018-Nov-09 23:32N 51°07' E 001°28'816.0
2018-Nov-09 23:02N 51°02' E 001°38'816.0
2018-Nov-09 22:33N 50°58' E 001°49'1 2.5
2018-Nov-09 22:02N 50°58' E 001°51'0 0.0
2018-Nov-09 21:32N 50°58' E 001°51'611.4
2018-Nov-09 21:02N 50°58' E 001°42'816.9
2018-Nov-09 20:32N 51°02' E 001°30'816.4
2018-Nov-09 20:02N 51°07' E 001°21'0 0.7
2018-Nov-09 19:32N 51°07' E 001°20'0 0.1
2018-Nov-09 18:55N 51°07' E 001°20'512.2
2018-Nov-09 18:32N 51°06' E 001°27'816.9
2018-Nov-09 18:02N 51°01' E 001°38'816.1
2018-Nov-09 17:33N 50°58' E 001°50'1 1.7
2018-Nov-09 17:02N 50°58' E 001°51'1 3.0
2018-Nov-09 16:32N 50°58' E 001°49'815.7
2018-Nov-09 16:03N 50°60' E 001°37'815.2
2018-Nov-09 15:33N 51°05' E 001°27'5 9.2
2018-Nov-09 14:57N 51°07' E 001°20'0 0.0
2018-Nov-09 14:27N 51°07' E 001°20'410.9
2018-Nov-09 14:02N 51°07' E 001°27'918.4
2018-Nov-09 13:32N 51°01' E 001°39'816.0
2018-Nov-09 13:03N 50°58' E 001°51'1 1.0
2018-Nov-09 12:32N 50°58' E 001°51'0 0.2
2018-Nov-09 12:03N 50°58' E 001°51'816.4
2018-Nov-09 11:32N 50°59' E 001°38'816.3
2018-Nov-09 11:02N 51°04' E 001°28'612.1
2018-Nov-09 10:32N 51°07' E 001°20'0 0.0
2018-Nov-09 10:01N 51°07' E 001°20'2 3.6
2018-Nov-09 09:33N 51°07' E 001°23'917.5
2018-Nov-09 09:03N 51°03' E 001°35'917.3
2018-Nov-09 08:33N 50°58' E 001°47'3 5.7
2018-Nov-09 08:02N 50°58' E 001°51'0 0.0
2018-Nov-09 07:33N 50°58' E 001°51'4 8.6
2018-Nov-09 07:02N 50°58' E 001°44'815.9
2018-Nov-09 06:32N 51°02' E 001°34'816.6
2018-Nov-09 06:02N 51°07' E 001°23'2 1.6
2018-Nov-09 04:55N 51°07' E 001°20'3 7.0
2018-Nov-09 04:32N 51°07' E 001°24'815.9
2018-Nov-09 04:02N 51°03' E 001°35'816.3
2018-Nov-09 03:32N 50°58' E 001°45'4 7.2
2018-Nov-09 03:02N 50°58' E 001°51'0 0.0
2018-Nov-09 02:32N 50°58' E 001°51'1 1.9
2018-Nov-09 02:02N 50°58' E 001°50'815.9
2018-Nov-09 01:32N 51°00' E 001°38'816.6
2018-Nov-09 01:02N 51°05' E 001°26'5 3.9
2018-Nov-08 23:48N 51°07' E 001°20'1 4.9
2018-Nov-08 23:32N 51°07' E 001°22'917.3
2018-Nov-08 23:03N 51°03' E 001°34'917.8
2018-Nov-08 22:32N 50°58' E 001°46'3 6.5
2018-Nov-08 22:02N 50°58' E 001°51'0 0.0
2018-Nov-08 21:33N 50°58' E 001°51'4 7.7
2018-Nov-08 21:02N 50°58' E 001°45'917.4
2018-Nov-08 20:33N 51°01' E 001°33'917.5
2018-Nov-08 20:03N 51°07' E 001°22'1 2.1
2018-Nov-08 19:29N 51°08' E 001°20'0 0.1
2018-Nov-08 19:02N 51°07' E 001°20'714.8
2018-Nov-08 18:32N 51°04' E 001°31'1019.9
2018-Nov-08 18:02N 50°58' E 001°44'5 9.4
2018-Nov-08 17:32N 50°58' E 001°51'0 0.0
2018-Nov-08 17:02N 50°58' E 001°51'3 6.0
2018-Nov-08 16:32N 50°58' E 001°46'815.4
2018-Nov-08 16:02N 51°00' E 001°35'918.2
2018-Nov-08 15:32N 51°06' E 001°23'2 4.2
2018-Nov-08 14:57N 51°08' E 001°20'0 0.0
2018-Nov-08 14:31N 51°08' E 001°20'3 5.7
2018-Nov-08 14:03N 51°07' E 001°24'1020.1
2018-Nov-08 13:32N 51°01' E 001°38'917.2
2018-Nov-08 13:02N 50°58' E 001°51'0 0.8
2018-Nov-08 12:32N 50°58' E 001°51'0 0.2
2018-Nov-08 12:02N 50°58' E 001°51'816.4
2018-Nov-08 11:32N 50°59' E 001°38'918.0
2018-Nov-08 11:03N 51°04' E 001°27'510.0
2018-Nov-08 10:31N 51°07' E 001°20'0 0.0
2018-Nov-08 10:02N 51°07' E 001°20'2 3.2
2018-Nov-08 09:32N 51°07' E 001°23'918.6
2018-Nov-08 09:02N 51°02' E 001°35'1019.3
2018-Nov-08 08:32N 50°58' E 001°49'1 2.5
2018-Nov-08 08:02N 50°58' E 001°51'0 0.0
2018-Nov-08 07:32N 50°58' E 001°51'3 6.4
2018-Nov-08 07:03N 50°58' E 001°46'815.2
2018-Nov-08 06:32N 51°00' E 001°35'917.1
2018-Nov-08 06:03N 51°06' E 001°24'3 6.1
2018-Nov-08 05:32N 51°07' E 001°20'0 0.0
2018-Nov-08 05:02N 51°07' E 001°20'3 5.1
2018-Nov-08 04:33N 51°07' E 001°24'815.5
2018-Nov-08 04:03N 51°04' E 001°35'816.1
2018-Nov-08 03:33N 50°58' E 001°45'4 8.1
2018-Nov-08 03:02N 50°58' E 001°51'0 0.0
2018-Nov-08 02:32N 50°58' E 001°51'1 2.8
2018-Nov-08 02:02N 50°58' E 001°49'714.1
2018-Nov-08 01:32N 50°59' E 001°38'816.2
2018-Nov-08 01:02N 51°04' E 001°27'517.0
2018-Nov-08 00:43N 51°07' E 001°21'0 1.7
2018-Nov-08 00:27N 51°07' E 001°20'0 0.0
2018-Nov-08 00:01N 51°07' E 001°20'2 4.3
2018-Nov-07 23:33N 51°07' E 001°23'917.8
2018-Nov-07 23:03N 51°03' E 001°36'817.0
2018-Nov-07 22:33N 50°58' E 001°47'3 5.4
2018-Nov-07 22:02N 50°58' E 001°51'0 0.0
2018-Nov-07 21:33N 50°58' E 001°51'3 7.0
2018-Nov-07 21:03N 50°58' E 001°46'816.7
2018-Nov-07 20:32N 51°01' E 001°33'917.7
2018-Nov-07 20:02N 51°06' E 001°23'2 3.1
2018-Nov-07 19:26N 51°07' E 001°20'0 0.2
2018-Nov-07 19:01N 51°07' E 001°20'715.1
2018-Nov-07 18:32N 51°04' E 001°31'1020.6
2018-Nov-07 18:02N 50°58' E 001°44'5 9.0
2018-Nov-07 17:32N 50°58' E 001°51'0 0.0
2018-Nov-07 17:02N 50°58' E 001°51'4 8.4
2018-Nov-07 16:33N 50°58' E 001°45'1019.0
2018-Nov-07 16:03N 51°03' E 001°32'913.1
2018-Nov-07 15:23N 51°07' E 001°20'0 0.0
2018-Nov-07 14:59N 51°07' E 001°20'0 0.0
2018-Nov-07 14:31N 51°07' E 001°20'510.5
2018-Nov-07 14:03N 51°06' E 001°28'1019.7
2018-Nov-07 13:32N 51°00' E 001°41'714.2
2018-Nov-07 13:02N 50°58' E 001°51'0 0.0
2018-Nov-07 12:33N 50°58' E 001°51'0 0.1
2018-Nov-07 12:02N 50°58' E 001°51'815.3
2018-Nov-07 11:32N 50°60' E 001°39'917.2
2018-Nov-07 11:03N 51°04' E 001°28'611.4
2018-Nov-07 10:32N 51°07' E 001°20'0 0.0
2018-Nov-07 09:57N 51°07' E 001°20'2 4.0
2018-Nov-07 09:33N 51°07' E 001°23'917.7
2018-Nov-07 09:03N 51°03' E 001°35'918.3
2018-Nov-07 08:32N 50°58' E 001°48'2 4.5
2018-Nov-07 08:02N 50°58' E 001°51'0 0.0
2018-Nov-07 07:32N 50°58' E 001°51'3 6.4
2018-Nov-07 07:02N 50°58' E 001°46'815.9
2018-Nov-07 06:32N 51°01' E 001°34'816.6
2018-Nov-07 06:02N 51°06' E 001°24'3 5.3
2018-Nov-07 05:30N 51°07' E 001°20'0 0.0
2018-Nov-07 05:02N 51°07' E 001°20'3 5.4
2018-Nov-07 04:33N 51°07' E 001°24'1 0.2
2018-Nov-06 23:30N 51°07' E 001°23'817.2
2018-Nov-06 23:03N 51°04' E 001°34'117.4
2018-Nov-06 23:00N 51°03' E 001°35'1111.5
2018-Nov-06 22:01N 50°58' E 001°51'0 0.0
2018-Nov-06 21:30N 50°58' E 001°51'4 8.7
2018-Nov-06 21:04N 50°58' E 001°45'119.3
2018-Nov-06 21:01N 50°58' E 001°44'917.0
2018-Nov-06 20:30N 51°02' E 001°31'716.4
2018-Nov-06 20:03N 51°06' E 001°22'118.0
2018-Nov-06 20:01N 51°07' E 001°21'1 1.0
2018-Nov-06 19:04N 51°08' E 001°20'0 0.0
2018-Nov-06 19:02N 51°08' E 001°20'0 0.2
2018-Nov-06 19:00N 51°08' E 001°20'612.1
2018-Nov-06 18:30N 51°05' E 001°29'919.8
2018-Nov-06 18:03N 50°60' E 001°41'120.2
2018-Nov-06 18:01N 50°59' E 001°42'612.0
2018-Nov-06 17:30N 50°58' E 001°51'0 0.0
2018-Nov-06 17:03N 50°58' E 001°51'0 0.0
2018-Nov-06 17:00N 50°58' E 001°51'2 3.7
2018-Nov-06 16:30N 50°58' E 001°48'715.9
2018-Nov-06 16:03N 50°60' E 001°37'116.7
2018-Nov-06 16:00N 51°00' E 001°36'917.2
2018-Nov-06 15:30N 51°05' E 001°25'4 7.7
2018-Nov-06 15:00N 51°08' E 001°20'0 0.0
2018-Nov-06 14:27N 51°08' E 001°20'2 5.6
2018-Nov-06 14:04N 51°07' E 001°24'119.4
2018-Nov-06 14:01N 51°07' E 001°25'1020.5
2018-Nov-06 13:31N 51°01' E 001°39'817.8
2018-Nov-06 13:03N 50°58' E 001°51'0 5.0
2018-Nov-06 13:00N 50°58' E 001°51'0 0.2
2018-Nov-06 12:31N 50°58' E 001°51'0 0.0
2018-Nov-06 12:04N 50°58' E 001°51'0 2.1
2018-Nov-06 12:00N 50°58' E 001°51'816.5
2018-Nov-06 11:31N 50°59' E 001°38'816.9
2018-Nov-06 11:04N 51°04' E 001°28'116.9
2018-Nov-06 11:01N 51°04' E 001°27'610.8
2018-Nov-06 10:30N 51°08' E 001°20'0 0.0
2018-Nov-06 10:00N 51°08' E 001°20'2 4.2
2018-Nov-06 09:30N 51°07' E 001°24'716.6
2018-Nov-06 09:04N 51°03' E 001°34'117.5
2018-Nov-06 09:00N 51°02' E 001°35'917.8
2018-Nov-06 08:30N 50°58' E 001°47'3 5.7
2018-Nov-06 08:03N 50°58' E 001°51'0 0.0
2018-Nov-06 08:01N 50°58' E 001°51'0 0.0
2018-Nov-06 07:30N 50°58' E 001°51'2 4.2
2018-Nov-06 07:04N 50°58' E 001°48'114.0
2018-Nov-06 07:00N 50°58' E 001°47'815.9
2018-Nov-06 06:31N 50°60' E 001°35'817.3
2018-Nov-06 06:03N 51°05' E 001°25'116.7
2018-Nov-06 06:00N 51°05' E 001°24'3 4.4
2018-Nov-06 05:15N 51°08' E 001°20'0 0.0
2018-Nov-06 05:03N 51°08' E 001°20'0 0.0
2018-Nov-06 04:55N 51°08' E 001°20'4 9.7
2018-Nov-06 04:30N 51°06' E 001°26'715.1
2018-Nov-06 04:04N 51°03' E 001°36'115.0
2018-Nov-06 04:01N 51°02' E 001°36'714.9
2018-Nov-06 03:30N 50°58' E 001°46'3 6.7
2018-Nov-06 03:03N 50°58' E 001°51'0 0.0
2018-Nov-06 03:00N 50°58' E 001°51'0 0.0
2018-Nov-06 02:30N 50°58' E 001°51'2 3.6
2018-Nov-06 02:04N 50°58' E 001°49'115.3
2018-Nov-06 02:00N 50°58' E 001°47'714.8
2018-Nov-06 01:31N 50°60' E 001°36'1312.5
2018-Nov-06 00:30N 51°08' E 001°20'2 2.1
2018-Nov-05 23:31N 51°07' E 001°24'816.7
2018-Nov-05 23:03N 51°04' E 001°35'117.5
2018-Nov-05 23:01N 51°03' E 001°36'917.8
2018-Nov-05 22:31N 50°58' E 001°47'3 5.9
2018-Nov-05 22:03N 50°58' E 001°51'0 0.0
2018-Nov-05 22:00N 50°58' E 001°51'0 0.0
2018-Nov-05 21:30N 50°58' E 001°51'511.3
2018-Nov-05 21:03N 50°58' E 001°43'119.1
2018-Nov-05 21:00N 50°58' E 001°42'917.0
2018-Nov-05 20:30N 51°03' E 001°31'716.6
2018-Nov-05 20:03N 51°07' E 001°21'0 6.2
2018-Nov-05 20:00N 51°07' E 001°20'0 0.1
2018-Nov-05 19:30N 51°08' E 001°20'0 0.0
2018-Nov-05 19:03N 51°08' E 001°20'0 0.0
2018-Nov-05 19:00N 51°08' E 001°20'612.0
2018-Nov-05 18:30N 51°05' E 001°29'920.9
2018-Nov-05 18:03N 50°60' E 001°41'121.3
2018-Nov-05 18:01N 50°59' E 001°43'611.0
2018-Nov-05 17:30N 50°58' E 001°51'0 0.0
2018-Nov-05 17:03N 50°58' E 001°51'0 0.0
2018-Nov-05 17:00N 50°58' E 001°51'3 5.4
2018-Nov-05 16:30N 50°58' E 001°47'716.1
2018-Nov-05 16:03N 50°59' E 001°36'116.4
2018-Nov-05 16:00N 50°59' E 001°34'816.8
2018-Nov-05 15:30N 51°05' E 001°25'4 4.7
2018-Nov-05 14:45N 51°08' E 001°20'0 0.0
2018-Nov-05 14:29N 51°08' E 001°20'3 7.0
2018-Nov-05 14:03N 51°07' E 001°25'120.4
2018-Nov-05 14:01N 51°06' E 001°27'1818.4
2018-Nov-05 13:03N 50°58' E 001°51'0 2.6
2018-Nov-05 13:00N 50°58' E 001°51'0 0.0
2018-Nov-05 12:30N 50°58' E 001°51'0 1.1
2018-Nov-05 12:03N 50°58' E 001°51'112.1
2018-Nov-05 12:01N 50°58' E 001°50'917.2
2018-Nov-05 11:31N 51°00' E 001°36'817.8
2018-Nov-05 11:04N 51°05' E 001°26'118.0
2018-Nov-05 11:00N 51°05' E 001°25'3 6.8
2018-Nov-05 10:30N 51°08' E 001°20'0 0.0
2018-Nov-05 10:03N 51°08' E 001°20'0 0.0
2018-Nov-05 09:56N 51°08' E 001°20'0 0.3
2018-Nov-05 09:31N 51°07' E 001°20'716.1
2018-Nov-05 09:03N 51°05' E 001°31'121.3
2018-Nov-05 09:00N 51°04' E 001°32'1020.3
2018-Nov-05 08:31N 50°58' E 001°46'4 7.8
2018-Nov-05 08:03N 50°58' E 001°51'0 0.0
2018-Nov-05 08:00N 50°58' E 001°51'0 0.0
2018-Nov-05 07:30N 50°58' E 001°51'2 3.5
2018-Nov-05 07:03N 50°58' E 001°49'117.7
2018-Nov-05 07:00N 50°58' E 001°47'917.4
2018-Nov-05 06:30N 51°00' E 001°34'817.4
2018-Nov-05 06:03N 51°05' E 001°24'116.8
2018-Nov-05 06:00N 51°06' E 001°23'3 5.0
2018-Nov-05 05:31N 51°08' E 001°20'0 0.0
2018-Nov-05 04:59N 51°08' E 001°20'4 8.7
2018-Nov-05 04:30N 51°06' E 001°27'715.6
2018-Nov-05 04:03N 51°02' E 001°35'115.8
2018-Nov-05 04:00N 51°01' E 001°37'815.2
2018-Nov-05 03:30N 50°58' E 001°47'2 4.9
2018-Nov-05 03:03N 50°58' E 001°51'0 0.0
2018-Nov-05 03:00N 50°58' E 001°51'0 0.0
2018-Nov-05 02:30N 50°58' E 001°51'2 3.7
2018-Nov-05 02:04N 50°58' E 001°48'114.6
2018-Nov-05 02:00N 50°58' E 001°47'714.3
2018-Nov-05 01:30N 51°00' E 001°36'715.3
2018-Nov-05 01:03N 51°05' E 001°28'115.7
2018-Nov-05 01:01N 51°05' E 001°27'5 9.7
2018-Nov-05 00:30N 51°08' E 001°20'0 0.0
2018-Nov-05 00:03N 51°08' E 001°20'0 0.0
2018-Nov-05 00:00N 51°08' E 001°20'2 3.5
2018-Nov-04 23:30N 51°07' E 001°23'716.6
2018-Nov-04 23:03N 51°04' E 001°34'117.1
2018-Nov-04 23:01N 51°03' E 001°35'917.5
2018-Nov-04 22:31N 50°58' E 001°46'3 7.3
2018-Nov-04 22:03N 50°58' E 001°51'0 0.0
2018-Nov-04 22:01N 50°58' E 001°51'0 0.0
2018-Nov-04 21:30N 50°58' E 001°51'2 4.6
2018-Nov-04 21:03N 50°58' E 001°48'118.9
2018-Nov-04 21:00N 50°58' E 001°46'918.1
2018-Nov-04 20:30N 51°01' E 001°33'817.0
2018-Nov-04 20:03N 51°06' E 001°23'117.3
2018-Nov-04 20:00N 51°06' E 001°23'2 3.8
2018-Nov-04 19:30N 51°08' E 001°20'0 0.2
2018-Nov-04 19:03N 51°07' E 001°20'0 0.6
2018-Nov-04 19:00N 51°07' E 001°20'714.7
2018-Nov-04 18:30N 51°05' E 001°31'716.6
2018-Nov-04 18:03N 51°00' E 001°41'120.1
2018-Nov-04 18:00N 50°60' E 001°42'612.4
2018-Nov-04 17:31N 50°58' E 001°51'0 0.0
2018-Nov-04 17:00N 50°58' E 001°51'2 4.6
2018-Nov-04 16:30N 50°58' E 001°48'715.4
2018-Nov-04 16:03N 50°59' E 001°37'116.8
2018-Nov-04 16:00N 50°59' E 001°36'816.8
2018-Nov-04 15:30N 51°05' E 001°26'4 3.6
2018-Nov-04 14:22N 51°08' E 001°20'2 7.2
2018-Nov-04 14:03N 51°07' E 001°24'120.0
2018-Nov-04 14:00N 51°07' E 001°25'1020.2
2018-Nov-04 13:30N 51°01' E 001°39'817.7
2018-Nov-04 13:03N 50°58' E 001°51'0 4.9
2018-Nov-04 13:00N 50°58' E 001°51'0 0.2
2018-Nov-04 12:28N 50°58' E 001°51'0 0.4
2018-Nov-04 12:03N 50°58' E 001°51'0 3.0
2018-Nov-04 11:59N 50°58' E 001°52'0 0.1
2018-Nov-04 11:26N 50°58' E 001°52'0 0.0
2018-Nov-04 11:02N 50°58' E 001°52'0 0.0
2018-Nov-04 10:53N 50°58' E 001°52'0 0.0
2018-Nov-04 10:26N 50°58' E 001°52'0 0.0
2018-Nov-04 09:56N 50°58' E 001°52'0 0.0
2018-Nov-04 09:26N 50°58' E 001°52'0 0.0
2018-Nov-04 08:59N 50°58' E 001°52'0 0.0
2018-Nov-04 08:17N 50°58' E 001°52'0 0.0
2018-Nov-04 08:02N 50°58' E 001°52'0 0.0
2018-Nov-04 07:59N 50°58' E 001°52'0 0.0
2018-Nov-04 07:17N 50°58' E 001°52'0 0.0
2018-Nov-04 06:59N 50°58' E 001°52'0 0.0
2018-Nov-04 06:29N 50°58' E 001°52'0 0.0
2018-Nov-04 06:02N 50°58' E 001°52'0 0.0
2018-Nov-04 05:59N 50°58' E 001°52'0 0.0
2018-Nov-04 05:29N 50°58' E 001°52'0 0.0
2018-Nov-04 05:02N 50°58' E 001°52'0 0.0
2018-Nov-04 04:59N 50°58' E 001°52'0 0.0
2018-Nov-04 04:29N 50°58' E 001°52'0 0.0
2018-Nov-04 03:53N 50°58' E 001°52'0 0.0
2018-Nov-04 03:29N 50°58' E 001°52'0 0.0
2018-Nov-04 03:03N 50°58' E 001°52'0 0.0
2018-Nov-04 03:00N 50°58' E 001°52'0 0.8
2018-Nov-04 02:30N 50°58' E 001°51'1 1.2
2018-Nov-04 02:04N 50°58' E 001°50'111.5
2018-Nov-04 02:00N 50°58' E 001°50'715.0
2018-Nov-04 01:30N 51°00' E 001°38'919.7
2018-Nov-04 01:03N 51°05' E 001°26'119.8
2018-Nov-04 01:00N 51°06' E 001°25'4 7.1
2018-Nov-04 00:30N 51°07' E 001°20'0 0.0
2018-Nov-03 23:47N 51°07' E 001°20'1 4.1
2018-Nov-03 23:30N 51°07' E 001°22'817.2
2018-Nov-03 23:03N 51°03' E 001°33'118.6
2018-Nov-03 23:01N 51°03' E 001°34'918.3
2018-Nov-03 22:31N 50°58' E 001°46'10 4.8
2018-Nov-03 20:31N 51°02' E 001°32'716.3
2018-Nov-03 20:03N 51°06' E 001°23'116.5
2018-Nov-03 20:00N 51°07' E 001°22'1 2.6
2018-Nov-03 19:30N 51°07' E 001°20'0 0.3
2018-Nov-03 19:03N 51°07' E 001°20'0 1.2
2018-Nov-03 19:00N 51°07' E 001°20'815.0
2018-Nov-03 18:30N 51°04' E 001°31'716.7
2018-Nov-03 18:03N 50°59' E 001°40'116.2
2018-Nov-03 18:00N 50°59' E 001°42'612.3
2018-Nov-03 17:31N 50°58' E 001°51'0 0.0
2018-Nov-03 17:03N 50°58' E 001°51'0 0.0
2018-Nov-03 17:00N 50°58' E 001°51'2 3.8
2018-Nov-03 16:30N 50°58' E 001°48'716.1
2018-Nov-03 16:04N 50°59' E 001°37'116.3
2018-Nov-03 16:01N 50°60' E 001°36'816.4
2018-Nov-03 15:30N 51°05' E 001°25'4 9.4
2018-Nov-03 15:02N 51°07' E 001°20'0 0.0
2018-Nov-03 14:59N 51°07' E 001°20'0 0.2
2018-Nov-03 14:20N 51°07' E 001°20'310.2
2018-Nov-03 14:04N 51°07' E 001°25'119.6
2018-Nov-03 14:00N 51°06' E 001°26'1020.0
2018-Nov-03 13:31N 51°01' E 001°39'817.8
2018-Nov-03 13:04N 50°58' E 001°51'0 3.0
2018-Nov-03 13:01N 50°58' E 001°51'0 0.1
2018-Nov-03 12:30N 50°58' E 001°51'0 0.5
2018-Nov-03 12:03N 50°58' E 001°51'0 7.0
2018-Nov-03 12:01N 50°58' E 001°50'815.4
2018-Nov-03 11:30N 50°59' E 001°38'716.5
2018-Nov-03 11:04N 51°03' E 001°29'116.9
2018-Nov-03 11:01N 51°04' E 001°28'610.7
2018-Nov-03 10:27N 51°07' E 001°20'0 0.0
2018-Nov-03 10:00N 51°07' E 001°20'3 5.9
2018-Nov-03 09:30N 51°07' E 001°25'818.7
2018-Nov-03 09:03N 51°03' E 001°36'119.7
2018-Nov-03 09:00N 51°02' E 001°37'917.1
2018-Nov-03 08:30N 50°58' E 001°50'1 2.4
2018-Nov-03 08:03N 50°58' E 001°51'0 0.0
2018-Nov-03 08:00N 50°58' E 001°51'0 0.0
2018-Nov-03 07:30N 50°58' E 001°51'3 6.9
2018-Nov-03 07:03N 50°58' E 001°46'119.8
2018-Nov-03 07:00N 50°58' E 001°45'918.1
2018-Nov-03 06:31N 50°60' E 001°31'715.8
2018-Nov-03 06:04N 51°06' E 001°25'116.3
2018-Nov-03 06:00N 51°06' E 001°23'3 4.8
2018-Nov-03 05:29N 51°07' E 001°20'0 0.0
2018-Nov-03 05:03N 51°07' E 001°20'0 0.0
2018-Nov-03 05:00N 51°07' E 001°20'4 7.7
2018-Nov-03 04:31N 51°07' E 001°26'715.3
2018-Nov-03 04:04N 51°03' E 001°35'115.1
2018-Nov-03 04:01N 51°02' E 001°36'815.2
2018-Nov-03 03:31N 50°58' E 001°46'3 7.4
2018-Nov-03 03:03N 50°58' E 001°51'0 0.0
2018-Nov-03 03:00N 50°58' E 001°51'0 0.0
2018-Nov-03 02:30N 50°58' E 001°51'1 3.2
2018-Nov-03 02:04N 50°58' E 001°49'117.3
2018-Nov-03 02:00N 50°58' E 001°48'714.2
2018-Nov-03 01:30N 50°59' E 001°36'716.0
2018-Nov-03 01:04N 51°03' E 001°27'117.3
2018-Nov-03 01:01N 51°04' E 001°26'5 9.9
2018-Nov-03 00:29N 51°07' E 001°20'0 0.0
2018-Nov-02 23:54N 51°07' E 001°20'2 5.9
2018-Nov-02 23:30N 51°07' E 001°24'816.7
2018-Nov-02 23:03N 51°04' E 001°34'117.0
2018-Nov-02 23:00N 51°03' E 001°35'816.9
2018-Nov-02 22:31N 50°58' E 001°46'3 6.9
2018-Nov-02 22:04N 50°58' E 001°51'0 0.0
2018-Nov-02 22:00N 50°58' E 001°51'0 0.0
2018-Nov-02 21:30N 50°58' E 001°51'2 3.7
2018-Nov-02 21:04N 50°58' E 001°49'118.1
2018-Nov-02 21:01N 50°58' E 001°47'918.3
2018-Nov-02 20:31N 50°60' E 001°33'919.6
2018-Nov-02 20:03N 51°06' E 001°23'120.4
2018-Nov-02 20:00N 51°07' E 001°22'1 2.1
2018-Nov-02 19:24N 51°07' E 001°20'0 0.0
2018-Nov-02 18:57N 51°07' E 001°20'612.4
2018-Nov-02 18:31N 51°05' E 001°28'919.6
2018-Nov-02 18:04N 51°00' E 001°40'119.8
2018-Nov-02 18:00N 50°60' E 001°41'612.9
2018-Nov-02 17:30N 50°58' E 001°51'0 0.1
2018-Nov-02 17:03N 50°58' E 001°51'0 0.0
2018-Nov-02 17:00N 50°58' E 001°51'1 2.7
2018-Nov-02 16:31N 50°58' E 001°49'817.1
2018-Nov-02 16:03N 50°59' E 001°37'117.2
2018-Nov-02 16:00N 50°59' E 001°35'917.8
2018-Nov-02 15:30N 51°05' E 001°25'4 6.4
2018-Nov-02 14:54N 51°07' E 001°20'0 0.0
2018-Nov-02 14:26N 51°07' E 001°20'4 8.6
2018-Nov-02 14:01N 51°06' E 001°26'918.5
2018-Nov-02 13:31N 51°01' E 001°38'817.2
2018-Nov-02 13:03N 50°58' E 001°49'114.1
2018-Nov-02 13:01N 50°58' E 001°50'1 1.1
2018-Nov-02 12:30N 50°58' E 001°51'0 0.8
2018-Nov-02 12:04N 50°58' E 001°51'112.1
2018-Nov-02 12:01N 50°58' E 001°50'815.6
2018-Nov-02 11:30N 50°59' E 001°37'817.5
2018-Nov-02 11:04N 51°04' E 001°28'117.6
2018-Nov-02 11:01N 51°04' E 001°27'5 7.8
2018-Nov-02 10:22N 51°07' E 001°20'0 0.0
2018-Nov-02 09:57N 51°07' E 001°20'3 5.8
2018-Nov-02 09:30N 51°07' E 001°24'919.3
2018-Nov-02 09:03N 51°02' E 001°36'119.7
2018-Nov-02 09:01N 51°02' E 001°37'917.9
2018-Nov-02 08:30N 50°58' E 001°50'1 1.4
2018-Nov-02 08:03N 50°58' E 001°51'0 0.0
2018-Nov-02 08:00N 50°58' E 001°51'0 0.0
2018-Nov-02 07:30N 50°58' E 001°51'1 3.0
2018-Nov-02 07:03N 50°58' E 001°49'116.7
2018-Nov-02 07:01N 50°58' E 001°48'816.9
2018-Nov-02 06:30N 51°01' E 001°35'816.8
2018-Nov-02 06:03N 51°05' E 001°25'116.3
2018-Nov-02 06:00N 51°06' E 001°24'3 5.6
2018-Nov-02 05:27N 51°07' E 001°20'0 0.0
2018-Nov-02 05:03N 51°07' E 001°20'0 0.0
2018-Nov-02 04:58N 51°07' E 001°20'4 9.0
2018-Nov-02 04:31N 51°06' E 001°26'816.7
2018-Nov-02 04:04N 51°02' E 001°36'116.9
2018-Nov-02 04:01N 51°01' E 001°37'816.0
2018-Nov-02 03:31N 50°58' E 001°49'1 3.2
2018-Nov-02 03:04N 50°58' E 001°51'0 0.0
2018-Nov-02 03:01N 50°58' E 001°51'0 0.0
2018-Nov-02 02:31N 50°58' E 001°51'2 4.7
2018-Nov-02 02:04N 50°58' E 001°48'115.0
2018-Nov-02 02:00N 50°58' E 001°47'714.0
2018-Nov-02 01:30N 50°60' E 001°36'715.1
2018-Nov-02 01:03N 51°04' E 001°27'115.5
2018-Nov-02 01:00N 51°04' E 001°26'115.2
2018-Nov-02 00:56N 51°05' E 001°25'4 8.6
2018-Nov-02 00:29N 51°07' E 001°20'0 0.0
2018-Nov-01 23:58N 51°07' E 001°20'2 5.4
2018-Nov-01 23:30N 51°07' E 001°24'816.9
2018-Nov-01 23:03N 51°03' E 001°34'117.1
2018-Nov-01 23:00N 51°03' E 001°35'816.7
2018-Nov-01 22:30N 50°58' E 001°47'3 6.6
2018-Nov-01 22:03N 50°58' E 001°51'0 0.0
2018-Nov-01 22:01N 50°58' E 001°51'0 0.0
2018-Nov-01 21:31N 50°58' E 001°51'3 7.6
2018-Nov-01 21:03N 50°58' E 001°46'116.1
2018-Nov-01 21:01N 50°58' E 001°45'815.4
2018-Nov-01 20:31N 51°01' E 001°33'716.6
2018-Nov-01 20:03N 51°06' E 001°24'117.7
2018-Nov-01 20:01N 51°06' E 001°23'2 3.7
2018-Nov-01 19:25N 51°07' E 001°20'0 0.0
2018-Nov-01 18:59N 51°07' E 001°20'612.1
2018-Nov-01 18:31N 51°06' E 001°29'919.3
2018-Nov-01 18:03N 51°02' E 001°42'119.6
2018-Nov-01 18:00N 51°01' E 001°42'612.8
2018-Nov-01 17:31N 50°58' E 001°51'0 0.1
2018-Nov-01 17:03N 50°58' E 001°51'0 0.0
2018-Nov-01 17:00N 50°58' E 001°51'4 7.7
2018-Nov-01 16:30N 50°58' E 001°45'818.2
2018-Nov-01 16:03N 51°01' E 001°33'118.3
2018-Nov-01 16:00N 51°02' E 001°32'917.9
2018-Nov-01 15:30N 51°07' E 001°21'1 1.1
2018-Nov-01 15:03N 51°07' E 001°20'0 0.0
2018-Nov-01 14:58N 51°07' E 001°20'0 0.5
2018-Nov-01 14:30N 51°07' E 001°20'511.1
2018-Nov-01 14:00N 51°06' E 001°29'918.2
2018-Nov-01 13:31N 51°01' E 001°40'716.0
2018-Nov-01 13:03N 50°58' E 001°51'0 2.2
2018-Nov-01 13:00N 50°58' E 001°51'0 0.0
2018-Nov-01 12:30N 50°58' E 001°51'0 0.9
2018-Nov-01 12:03N 50°58' E 001°51'111.7
2018-Nov-01 12:00N 50°59' E 001°50'612.5
2018-Nov-01 11:30N 50°59' E 001°40'919.3
2018-Nov-01 11:03N 51°04' E 001°29'120.2
2018-Nov-01 11:00N 51°04' E 001°27'5 8.2
2018-Nov-01 10:20N 51°07' E 001°20'0 0.1
2018-Nov-01 09:53N 51°07' E 001°20'3 8.8
2018-Nov-01 09:31N 51°07' E 001°25'818.2
2018-Nov-01 09:04N 51°02' E 001°36'118.5
2018-Nov-01 09:00N 51°02' E 001°38'816.8
2018-Nov-01 08:30N 50°58' E 001°50'1 2.3
2018-Nov-01 08:04N 50°58' E 001°51'0 0.0
2018-Nov-01 08:00N 50°58' E 001°51'0 0.0
2018-Nov-01 07:31N 50°58' E 001°51'2 3.9
2018-Nov-01 07:03N 50°58' E 001°48'111.9
2018-Nov-01 07:00N 50°58' E 001°48'816.1
2018-Nov-01 06:30N 50°60' E 001°35'817.0
2018-Nov-01 06:03N 51°05' E 001°26'117.3
2018-Nov-01 06:00N 51°05' E 001°25'4 6.7
2018-Nov-01 05:28N 51°07' E 001°20'0 0.0
2018-Nov-01 05:00N 51°07' E 001°20'3 6.9
2018-Nov-01 04:31N 51°07' E 001°26'715.2
2018-Nov-01 04:03N 51°03' E 001°35'115.1
2018-Nov-01 04:00N 51°03' E 001°36'815.5
2018-Nov-01 03:31N 50°58' E 001°46'3 7.5
2018-Nov-01 03:03N 50°58' E 001°51'0 0.0
2018-Nov-01 03:00N 50°58' E 001°51'0 0.0
2018-Nov-01 02:30N 50°58' E 001°51'  

Dump ship's entire track history